Welaka, Florida
Current Conditions -  °F | °C
As of 12:55 AM on Monday 20 Oct 2014 (Local Time) from KXFL Reporting Station
NA  
Wind Chill: 63°   Ceiling: NA
Heat Index: 63°   Visibility: NA
Dew Point: 61°   Wind: 0mph
Humidity: 91%   Direction: NA
Pressure: 30.06"   Gusts: NA
Location:  29.48°N, 81.67°W
Report Text: KXFL 200455Z AUTO 00000KT 17/16 A3006 RMK AO2 T01740160 PWINO
Loading
Personal Weather Stations






























Interactive Weather Map New forecast layout! Learn more

10-Day Weather Forecast

Advertisements
Track Severe Weather on mobile